Time;durP1;ratioP1;P1;durP2;ratioP2;P2;SDS_P1;SDS_P2;PMS_P1;PMS_P2;Temp;Humidity;BMP_temperature;BMP_pressure;BME280_temperature;BME280_humidity;BME280_pressure;Samples;Min_cycle;Max_cycle;Signal;HPM_P1;HPM_P2
2022/10/11 00:00:30;;;;;;;6.65;3.95;;;;;;;;;;5146148;27;20047;-58
2022/10/11 00:03:05;;;;;;;5.43;3.92;;;;;;;;;;5145438;27;20023;-58
2022/10/11 00:05:44;;;;;;;9.10;3.63;;;;;;;;;;5144804;27;20033;-58
2022/10/11 00:08:26;;;;;;;6.00;4.57;;;;;;;;;;5143100;27;20035;-58
2022/10/11 00:11:06;;;;;;;9.00;4.35;;;;;;;;;;5144255;27;20060;-58
2022/10/11 00:17:17;;;;;;;8.02;4.43;;;;;;;;;;5084863;28;20032;-59
2022/10/11 00:23:05;;;;;;;7.22;4.40;;;;;;;;;;5020870;28;20072;-58
2022/10/11 00:25:38;;;;;;;12.30;3.83;;;;;;;;;;5021639;28;20049;-58
2022/10/11 00:28:36;;;;;;;;;;;;;;;;;;;;;
2022/10/11 00:31:15;;;;;;;4.47;3.80;;;;;;;;;;5019182;28;20098;-58
2022/10/11 00:36:57;;;;;;;5.97;3.45;;;;;;;;;;5042403;28;20032;-58
2022/10/11 00:39:48;;;;;;;;;;;;;;;;;;;;;
2022/10/11 00:42:17;;;;;;;;;;;;;;;;;;5082021;28;20060;-58
2022/10/11 00:45:10;;;;;;;;;;;;;;;;;;;;;
2022/10/11 00:48:01;;;;;;;7.07;3.47;;;;;;;;;;5066192;28;20537;-58
2022/10/11 00:50:27;;;;;;;;;;;;;;;;;;5097588;28;20109;-58
2022/10/11 00:53:31;;;;;;;4.35;3.33;;;;;;;;;;5128400;28;19904;-58
2022/10/11 00:59:29;;;;;;;11.45;4.38;;;;;;;;;;5045181;28;20093;-58
2022/10/11 01:05:08;;;;;;;4.65;2.90;;;;;;;;;;5123487;28;20100;-58
2022/10/11 01:11:13;;;;;;;7.43;3.97;;;;;;;;;;5127200;28;20411;-58
2022/10/11 01:14:30;;;;;;;5.82;4.50;;;;;;;;;;5128236;28;20023;-58
2022/10/11 01:16:57;;;;;;;5.82;4.13;;;;;;;;;;5126378;28;20142;-58
2022/10/11 01:19:53;;;;;;;6.55;4.20;;;;;;;;;;5100660;28;20035;-58
2022/10/11 01:26:46;;;;;;;5.18;3.58;;;;;;;;;;4947614;29;20130;-58
2022/10/11 01:29:38;;;;;;;4.90;3.20;;;;;;;;;;4912308;29;20039;-58
2022/10/11 01:32:14;;;;;;;;;;;;;;;;;;;;;
2022/10/11 01:35:29;;;;;;;5.93;4.05;;;;;;;;;;5043313;28;19992;-57
2022/10/11 01:38:23;;;;;;;7.45;4.65;;;;;;;;;;5044873;28;20029;-58
2022/10/11 01:44:13;;;;;;;5.43;3.55;;;;;;;;;;4960101;29;20083;-58
2022/10/11 01:47:14;;;;;;;7.43;4.68;;;;;;;;;;4966982;29;20175;-58
2022/10/11 01:50:03;;;;;;;6.40;3.70;;;;;;;;;;4967119;29;20111;-58
2022/10/11 01:53:00;;;;;;;7.38;4.22;;;;;;;;;;4964868;29;20050;-58
2022/10/11 02:02:05;;;;;;;7.93;4.38;;;;;;;;;;5133572;27;20042;-58
2022/10/11 02:04:52;;;;;;;8.18;4.93;;;;;;;;;;5148993;27;20042;-58
2022/10/11 02:07:47;;;;;;;12.90;4.95;;;;;;;;;;5130829;27;20043;-58
2022/10/11 02:10:34;;;;;;;7.18;5.40;;;;;;;;;;5147642;27;20035;-57
2022/10/11 02:13:16;;;;;;;6.82;5.28;;;;;;;;;;5130215;27;20052;-58
2022/10/11 02:16:01;;;;;;;10.60;6.82;;;;;;;;;;5148069;27;20027;-58
2022/10/11 02:24:59;;;;;;;9.32;6.05;;;;;;;;;;5023244;28;20058;-58
2022/10/11 02:27:47;;;;;;;8.73;5.85;;;;;;;;;;5068445;28;20041;-58
2022/10/11 02:30:20;;;;;;;11.25;5.70;;;;;;;;;;5065959;28;20059;-58
2022/10/11 02:32:53;;;;;;;11.00;5.82;;;;;;;;;;5082567;28;20044;-58
2022/10/11 02:39:16;;;;;;;;;;;;;;;;;;;;;
2022/10/11 02:41:31;;;;;;;10.63;6.25;;;;;;;;;;5076895;28;20832;-58
2022/10/11 02:44:16;;;;;;;12.05;6.70;;;;;;;;;;5065880;28;20025;-57
2022/10/11 02:47:02;;;;;;;9.55;6.60;;;;;;;;;;5083698;28;20024;-57
2022/10/11 02:52:44;;;;;;;10.52;8.63;;;;;;;;;;5072167;28;20059;-58
2022/10/11 02:55:45;;;;;;;;;;;;;;;;;;;;;
2022/10/11 02:58:51;;;;;;;7.25;5.55;;;;;;;;;;5080341;28;20128;-58
2022/10/11 03:01:43;;;;;;;15.75;8.45;;;;;;;;;;5082388;28;20493;-57
2022/10/11 03:04:41;;;;;;;14.02;8.95;;;;;;;;;;5082326;28;20052;-58
2022/10/11 03:07:16;;;;;;;15.95;8.18;;;;;;;;;;5064333;28;20056;-58
2022/10/11 03:15:59;;;;;;;22.85;11.70;;;;;;;;;;5003037;28;20392;-58
2022/10/11 03:19:00;;;;;;;20.42;10.27;;;;;;;;;;5002910;28;20033;-58
2022/10/11 03:31:22;;;;;;;18.23;12.45;;;;;;;;;;5080176;28;20113;-57
2022/10/11 03:33:59;;;;;;;14.93;10.15;;;;;;;;;;5096485;28;20479;-57
2022/10/11 03:36:43;;;;;;;16.50;11.57;;;;;;;;;;5096824;28;20567;-57
2022/10/11 03:39:21;;;;;;;15.73;11.25;;;;;;;;;;5115276;28;20038;-57
2022/10/11 03:41:57;;;;;;;15.30;11.25;;;;;;;;;;5052933;28;20087;-58
2022/10/11 03:44:48;;;;;;;15.50;10.30;;;;;;;;;;5070276;28;20428;-58
2022/10/11 03:50:24;;;;;;;13.73;11.32;;;;;;;;;;5041678;28;20032;-58
2022/10/11 03:53:16;;;;;;;17.85;10.93;;;;;;;;;;5072182;28;20555;-57
2022/10/11 03:55:54;;;;;;;16.58;11.35;;;;;;;;;;5055799;28;20033;-58
2022/10/11 03:58:36;;;;;;;13.90;12.15;;;;;;;;;;5055483;28;20470;-58
2022/10/11 04:01:24;;;;;;;21.23;12.40;;;;;;;;;;5053655;28;20074;-58
2022/10/11 04:04:17;;;;;;;14.57;11.48;;;;;;;;;;5052244;28;20033;-56
2022/10/11 04:07:09;;;;;;;17.30;12.18;;;;;;;;;;5052920;28;20098;-58
2022/10/11 04:09:42;;;;;;;16.63;10.70;;;;;;;;;;5052411;28;20074;-58
2022/10/11 04:12:18;;;;;;;18.90;13.70;;;;;;;;;;5065145;28;20074;-57
2022/10/11 04:15:06;;;;;;;17.30;12.63;;;;;;;;;;5112745;28;20066;-57
2022/10/11 04:17:50;;;;;;;20.27;11.90;;;;;;;;;;5114435;28;20024;-58
2022/10/11 04:23:35;;;;;;;14.95;12.30;;;;;;;;;;5122452;27;20132;-59
2022/10/11 04:26:31;;;;;;;14.80;12.48;;;;;;;;;;5135997;28;20098;-57
2022/10/11 04:29:23;;;;;;;18.23;13.38;;;;;;;;;;5112133;28;20039;-57
2022/10/11 04:32:08;;;;;;;16.40;13.90;;;;;;;;;;5141901;28;20099;-57
2022/10/11 04:34:59;;;;;;;20.20;13.82;;;;;;;;;;5139903;28;20035;-57
2022/10/11 04:37:58;;;;;;;21.77;15.13;;;;;;;;;;5144360;28;20019;-57
2022/10/11 04:40:49;;;;;;;18.65;14.18;;;;;;;;;;5125889;28;20030;-57
2022/10/11 04:44:00;;;;;;;;;;;;;;;;;;;;;
2022/10/11 04:47:27;;;;;;;;;;;;;;;;;;;;;
2022/10/11 04:52:31;;;;;;;25.23;13.25;;;;;;;;;;5128007;28;20042;-57
2022/10/11 04:58:24;;;;;;;19.42;13.52;;;;;;;;;;5130024;28;20054;-57
2022/10/11 05:01:05;;;;;;;23.90;15.85;;;;;;;;;;5092486;28;20039;-57
2022/10/11 05:03:49;;;;;;;30.35;15.98;;;;;;;;;;5144367;28;20035;-58
2022/10/11 05:10:32;;;;;;;;;;;;;;;;;;;;;
2022/10/11 05:16:06;;;;;;;22.42;14.05;;;;;;;;;;5104418;28;20037;-58
2022/10/11 05:18:49;;;;;;;25.48;13.77;;;;;;;;;;5141405;28;20449;-58
2022/10/11 05:21:25;;;;;;;19.88;14.50;;;;;;;;;;5100805;28;20039;-55
2022/10/11 05:24:00;;;;;;;15.95;11.80;;;;;;;;;;5101009;28;20040;-58
2022/10/11 05:35:59;;;;;;;17.27;13.98;;;;;;;;;;5063669;28;20119;-57
2022/10/11 05:38:57;;;;;;;17.52;12.98;;;;;;;;;;5105353;28;20347;-58
2022/10/11 05:42:05;;;;;;;;;;;;;;;;;;;;;
2022/10/11 05:45:12;;;;;;;21.33;14.85;;;;;;;;;;5101031;28;20118;-57
2022/10/11 05:47:27;;;;;;;18.90;15.27;;;;;;;;;;5095349;28;20066;-58
2022/10/11 05:50:12;;;;;;;18.85;14.25;;;;;;;;;;5103964;28;20111;-58
2022/10/11 05:52:56;;;;;;;;;;;;;;;;;;;;;
2022/10/11 05:55:39;;;;;;;16.75;13.95;;;;;;;;;;5129238;27;20104;-58
2022/10/11 05:58:21;;;;;;;24.10;13.70;;;;;;;;;;5131388;27;20023;-58
2022/10/11 06:03:54;;;;;;;18.30;14.52;;;;;;;;;;5149703;27;20038;-58
2022/10/11 06:06:41;;;;;;;21.50;15.98;;;;;;;;;;5130720;27;20092;-58
2022/10/11 06:09:28;;;;;;;21.08;14.85;;;;;;;;;;5138400;27;20023;-58
2022/10/11 06:12:20;;;;;;;21.77;16.45;;;;;;;;;;5129610;27;20043;-58
2022/10/11 06:18:04;;;;;;;26.65;15.38;;;;;;;;;;5144426;27;20031;-58
2022/10/11 06:20:45;;;;;;;22.75;17.10;;;;;;;;;;5146373;27;20027;-58
2022/10/11 06:23:32;;;;;;;24.35;15.27;;;;;;;;;;5146124;27;20034;-57
2022/10/11 06:26:34;;;;;;;20.27;14.27;;;;;;;;;;5141811;27;20440;-57
2022/10/11 06:29:03;;;;;;;23.52;17.00;;;;;;;;;;5099461;27;20023;-58
2022/10/11 06:31:41;;;;;;;33.72;16.88;;;;;;;;;;5147952;27;20492;-57
2022/10/11 06:34:07;;;;;;;19.73;15.63;;;;;;;;;;5147865;27;20330;-58
2022/10/11 06:36:42;;;;;;;23.08;15.25;;;;;;;;;;5147254;27;20023;-58
2022/10/11 06:39:34;;;;;;;22.27;17.08;;;;;;;;;;5147313;27;20023;-58
2022/10/11 06:45:30;;;;;;;19.42;15.88;;;;;;;;;;5138299;27;20035;-58
2022/10/11 06:48:06;;;;;;;26.77;17.50;;;;;;;;;;5128427;27;20419;-59
2022/10/11 06:56:47;;;;;;;18.80;14.65;;;;;;;;;;5142350;27;20030;-58
2022/10/11 06:59:25;;;;;;;18.98;15.27;;;;;;;;;;5127437;27;20103;-57
2022/10/11 07:02:33;;;;;;;20.92;13.57;;;;;;;;;;5147228;27;20023;-57
2022/10/11 07:05:12;;;;;;;19.65;15.35;;;;;;;;;;5043188;28;20029;-57
2022/10/11 07:08:51;;;;;;;;;;;;;;;;;;;;;
2022/10/11 07:11:01;;;;;;;22.25;15.73;;;;;;;;;;5025705;28;20141;-57
2022/10/11 07:16:18;;;;;;;;;;;;;;;;;;5044659;28;20036;-58
2022/10/11 07:18:57;;;;;;;26.63;14.43;;;;;;;;;;5042976;28;19905;-58
2022/10/11 07:21:44;;;;;;;17.23;13.60;;;;;;;;;;5103234;27;20035;-58
2022/10/11 07:24:50;;;;;;;;;;;;;;;;;;;;;
2022/10/11 07:27:35;;;;;;;;;;;;;;;;;;;;;
2022/10/11 07:30:23;;;;;;;20.40;14.68;;;;;;;;;;5147126;27;20096;-58
2022/10/11 07:33:04;;;;;;;21.13;14.10;;;;;;;;;;5143963;27;20053;-58
2022/10/11 07:38:41;;;;;;;22.63;14.77;;;;;;;;;;5063247;28;20068;-57
2022/10/11 07:47:20;;;;;;;16.65;13.20;;;;;;;;;;5107072;27;20114;-58
2022/10/11 07:50:24;;;;;;;19.23;15.73;;;;;;;;;;5143602;27;20039;-59
2022/10/11 07:56:27;;;;;;;26.52;15.75;;;;;;;;;;5105592;27;20430;-59
2022/10/11 07:59:07;;;;;;;22.52;16.38;;;;;;;;;;5043217;28;20037;-58
2022/10/11 08:02:00;;;;;;;17.08;14.68;;;;;;;;;;5040460;28;20048;-58
2022/10/11 08:10:47;;;;;;;21.33;18.00;;;;;;;;;;5029029;28;20077;-58
2022/10/11 08:13:46;;;;;;;;;;;;;;;;;;;;;
2022/10/11 08:19:37;;;;;;;;;;;;;;;;;;5040399;28;20037;-58
2022/10/11 08:22:57;;;;;;;18.98;15.00;;;;;;;;;;5026440;28;19905;-58
2022/10/11 08:25:28;;;;;;;;;;;;;;;;;;;;;
2022/10/11 08:27:59;;;;;;;27.43;17.07;;;;;;;;;;5024130;28;20078;-58
2022/10/11 08:34:03;;;;;;;26.92;16.45;;;;;;;;;;5011755;28;20041;-58
2022/10/11 08:36:47;;;;;;;19.73;15.48;;;;;;;;;;5114750;28;20027;-58
2022/10/11 08:39:35;;;;;;;;;;;;;;;;;;;;;
2022/10/11 08:48:43;;;;;;;23.02;16.48;;;;;;;;;;5114435;28;20480;-58
2022/10/11 08:54:35;;;;;;;21.08;14.68;;;;;;;;;;5122939;28;20032;-58
2022/10/11 09:00:57;;;;;;;;;;;;;;;;;;;;;
2022/10/11 09:04:17;;;;;;;18.48;15.68;;;;;;;;;;4999148;28;20061;-58
2022/10/11 09:09:56;;;;;;;20.90;15.32;;;;;;;;;;5131403;28;20249;-58
2022/10/11 09:16:08;;;;;;;25.48;17.73;;;;;;;;;;5111531;28;20058;-57
2022/10/11 09:19:01;;;;;;;24.08;16.02;;;;;;;;;;5131723;28;20023;-58
2022/10/11 09:22:04;;;;;;;23.95;16.30;;;;;;;;;;5103561;28;20034;-58
2022/10/11 09:24:57;;;;;;;23.98;16.90;;;;;;;;;;5112156;28;20032;-58
2022/10/11 09:27:45;;;;;;;22.52;16.52;;;;;;;;;;5132501;27;20051;-58
2022/10/11 09:30:18;;;;;;;23.45;14.95;;;;;;;;;;5137244;27;20042;-57
2022/10/11 09:36:08;;;;;;;21.42;15.38;;;;;;;;;;5133887;27;20092;-58
2022/10/11 09:39:08;;;;;;;18.80;15.20;;;;;;;;;;5138547;27;20035;-58
2022/10/11 09:44:56;;;;;;;19.02;15.73;;;;;;;;;;5038116;27;20514;-59
2022/10/11 09:48:04;;;;;;;;;;;;;;;;;;;;;
2022/10/11 09:54:09;;;;;;;26.67;18.15;;;;;;;;;;5016424;28;20041;-58
2022/10/11 09:56:39;;;;;;;28.83;17.73;;;;;;;;;;5017362;28;20037;-58
2022/10/11 09:59:33;;;;;;;22.88;16.95;;;;;;;;;;5042492;27;20025;-58
2022/10/11 10:05:18;;;;;;;25.33;15.57;;;;;;;;;;5126731;27;20030;-58
2022/10/11 10:11:06;;;;;;;25.52;16.88;;;;;;;;;;5107915;27;20035;-58
2022/10/11 10:14:14;;;;;;;22.85;16.83;;;;;;;;;;5137458;27;20031;-57
2022/10/11 10:16:42;;;;;;;22.65;15.48;;;;;;;;;;5033955;28;20033;-58
2022/10/11 10:22:39;;;;;;;27.10;14.90;;;;;;;;;;5077141;27;20046;-57
2022/10/11 10:25:31;;;;;;;33.47;16.85;;;;;;;;;;5121242;27;20076;-58
2022/10/11 10:28:30;;;;;;;;;;;;;;;;;;;;;
2022/10/11 10:31:41;;;;;;;;;;;;;;;;;;;;;
2022/10/11 10:34:19;;;;;;;;;;;;;;;;;;5133511;27;20033;-58
2022/10/11 10:36:57;;;;;;;20.23;13.25;;;;;;;;;;5113198;27;19945;-58
2022/10/11 10:39:44;;;;;;;23.13;16.38;;;;;;;;;;5136527;27;20035;-58
2022/10/11 10:42:26;;;;;;;24.83;16.35;;;;;;;;;;5137407;27;20031;-58
2022/10/11 10:45:22;;;;;;;29.00;17.48;;;;;;;;;;5137921;27;20023;-58
2022/10/11 10:48:06;;;;;;;26.50;16.15;;;;;;;;;;5137583;27;20084;-58
2022/10/11 10:51:04;;;;;;;23.35;16.40;;;;;;;;;;5137319;27;20480;-58
2022/10/11 10:56:59;;;;;;;20.15;16.27;;;;;;;;;;5116838;27;20156;-58
2022/10/11 11:05:57;;;;;;;;;;;;;;;;;;5111703;27;20080;-58
2022/10/11 11:08:45;;;;;;;25.75;14.95;;;;;;;;;;5137854;27;19942;-58
2022/10/11 11:11:49;;;;;;;;;;;;;;;;;;;;;
2022/10/11 11:14:36;;;;;;;23.58;16.25;;;;;;;;;;5050968;27;20102;-58
2022/10/11 11:17:27;;;;;;;27.35;16.00;;;;;;;;;;5137017;27;20023;-58
2022/10/11 11:19:55;;;;;;;;;;;;;;;;;;5097716;28;20091;-58
2022/10/11 11:23:01;;;;;;;18.92;14.23;;;;;;;;;;5076951;28;20349;-58
2022/10/11 11:25:46;;;;;;;20.35;14.90;;;;;;;;;;5092570;28;20024;-58
2022/10/11 11:31:57;;;;;;;26.13;14.63;;;;;;;;;;5032538;28;20041;-58
2022/10/11 11:38:04;;;;;;;22.20;11.90;;;;;;;;;;5091590;28;20534;-58
2022/10/11 11:41:09;;;;;;;19.33;14.30;;;;;;;;;;5092578;28;20036;-58
2022/10/11 11:46:57;;;;;;;24.00;15.55;;;;;;;;;;5092702;28;20035;-56
2022/10/11 11:49:59;;;;;;;18.60;13.02;;;;;;;;;;5092411;28;20056;-56
2022/10/11 11:52:52;;;;;;;16.50;13.38;;;;;;;;;;5135867;27;20058;-58
2022/10/11 11:55:37;;;;;;;18.95;13.55;;;;;;;;;;5135579;27;20460;-59
2022/10/11 12:01:39;;;;;;;;;;;;;;;;;;;;;
2022/10/11 12:04:30;;;;;;;16.08;12.68;;;;;;;;;;5131895;27;20019;-58
2022/10/11 12:07:21;;;;;;;21.23;12.60;;;;;;;;;;5136125;27;20356;-59
2022/10/11 12:13:49;;;;;;;;;;;;;;;;;;;;;
2022/10/11 12:16:39;;;;;;;26.98;13.60;;;;;;;;;;5051982;28;20437;-56
2022/10/11 12:19:26;;;;;;;18.45;12.85;;;;;;;;;;4992978;28;20038;-56
2022/10/11 12:22:27;;;;;;;20.80;12.98;;;;;;;;;;5042141;28;20028;-57
2022/10/11 12:25:13;;;;;;;22.77;12.82;;;;;;;;;;5048680;28;20489;-56
2022/10/11 12:28:04;;;;;;;21.75;12.32;;;;;;;;;;5050041;28;20121;-58
2022/10/11 12:34:00;;;;;;;15.25;11.25;;;;;;;;;;5048900;28;20190;-58
2022/10/11 12:43:11;;;;;;;12.65;10.95;;;;;;;;;;5069062;27;20104;-57
2022/10/11 12:46:12;;;;;;;18.17;12.50;;;;;;;;;;5140268;27;20019;-59
2022/10/11 12:49:15;;;;;;;;;;;;;;;;;;;;;
2022/10/11 12:51:54;;;;;;;17.08;11.73;;;;;;;;;;5139239;27;20447;-56
2022/10/11 12:54:32;;;;;;;19.17;12.82;;;;;;;;;;5139725;27;20104;-58
2022/10/11 13:06:58;;;;;;;14.02;11.75;;;;;;;;;;5139106;27;20165;-56
2022/10/11 13:09:32;;;;;;;19.00;12.40;;;;;;;;;;5138787;27;20027;-58
2022/10/11 13:21:16;;;;;;;16.80;11.80;;;;;;;;;;5138116;27;20034;-58
2022/10/11 13:23:52;;;;;;;15.55;11.75;;;;;;;;;;5119428;27;20543;-58
2022/10/11 13:29:33;;;;;;;14.60;10.77;;;;;;;;;;5138759;27;20054;-57
2022/10/11 13:32:21;;;;;;;15.40;11.18;;;;;;;;;;5138653;27;20495;-58
2022/10/11 13:35:10;;;;;;;12.45;9.60;;;;;;;;;;5119949;27;20027;-58
2022/10/11 13:37:41;;;;;;;15.15;9.23;;;;;;;;;;5119903;27;20079;-58
2022/10/11 13:40:17;;;;;;;14.13;10.65;;;;;;;;;;5143992;27;20023;-57
2022/10/11 13:46:08;;;;;;;14.00;10.80;;;;;;;;;;5138394;27;20042;-57
2022/10/11 13:48:46;;;;;;;11.43;9.52;;;;;;;;;;5104183;27;20057;-58
2022/10/11 13:51:49;;;;;;;10.00;8.98;;;;;;;;;;5118729;27;20019;-58
2022/10/11 13:54:28;;;;;;;;;;;;;;;;;;;;;
2022/10/11 13:57:15;;;;;;;14.60;9.75;;;;;;;;;;5110609;27;20491;-58
2022/10/11 13:59:50;;;;;;;11.30;9.75;;;;;;;;;;5137677;27;20529;-58
2022/10/11 14:11:43;;;;;;;11.88;9.00;;;;;;;;;;5137511;27;20038;-57
2022/10/11 14:14:49;;;;;;;11.88;9.00;;;;;;;;;;5017815;28;20049;-59
2022/10/11 14:17:23;;;;;;;13.90;10.63;;;;;;;;;;5137683;27;20069;-58
2022/10/11 14:20:20;;;;;;;15.98;9.88;;;;;;;;;;5119762;27;20342;-57
2022/10/11 14:23:03;;;;;;;13.43;8.40;;;;;;;;;;5120436;27;20038;-57
2022/10/11 14:25:40;;;;;;;10.55;9.18;;;;;;;;;;5137123;27;20080;-58
2022/10/11 14:31:36;;;;;;;13.52;8.93;;;;;;;;;;5091017;27;20062;-59
2022/10/11 14:34:23;;;;;;;;;;;;;;;;;;;;;
2022/10/11 14:37:21;;;;;;;15.35;9.10;;;;;;;;;;5137249;27;20113;-58
2022/10/11 14:39:57;;;;;;;10.98;9.27;;;;;;;;;;5100294;27;20035;-58
2022/10/11 14:42:32;;;;;;;10.98;9.27;;;;;;;;;;5136901;27;20019;-57
2022/10/11 14:52:04;;;;;;;11.57;10.40;;;;;;;;;;5131927;27;20091;-56
2022/10/11 14:57:46;;;;;;;10.95;9.18;;;;;;;;;;5136610;27;20500;-58
2022/10/11 15:00:40;;;;;;;;;;;;;;;;;;;;;
2022/10/11 15:03:58;;;;;;;14.95;9.65;;;;;;;;;;5088571;27;20027;-58
2022/10/11 15:06:38;;;;;;;11.68;10.07;;;;;;;;;;5112904;27;20464;-58
2022/10/11 15:09:51;;;;;;;10.77;9.32;;;;;;;;;;5136511;27;20019;-56
2022/10/11 15:12:17;;;;;;;18.38;9.55;;;;;;;;;;5135604;27;20067;-56
2022/10/11 15:17:47;;;;;;;10.55;9.45;;;;;;;;;;5136926;27;20034;-56
2022/10/11 15:24:08;;;;;;;12.73;8.05;;;;;;;;;;5072535;28;20035;-57
2022/10/11 15:26:54;;;;;;;11.13;8.93;;;;;;;;;;5136380;27;20038;-57
2022/10/11 15:29:37;;;;;;;13.32;9.48;;;;;;;;;;5135622;27;20051;-57
2022/10/11 15:32:24;;;;;;;14.07;9.50;;;;;;;;;;5135523;27;20054;-57
2022/10/11 15:35:04;;;;;;;14.90;10.90;;;;;;;;;;5124065;27;20504;-57
2022/10/11 15:38:00;;;;;;;11.65;9.40;;;;;;;;;;5077221;28;20040;-57
2022/10/11 15:43:49;;;;;;;15.23;8.68;;;;;;;;;;5033092;28;20036;-61
2022/10/11 15:50:21;;;;;;;13.82;10.10;;;;;;;;;;5017048;28;20021;-57
2022/10/11 15:53:08;;;;;;;13.25;10.45;;;;;;;;;;5055411;28;20462;-57
2022/10/11 15:55:49;;;;;;;13.10;9.00;;;;;;;;;;5065394;28;20493;-58
2022/10/11 15:58:22;;;;;;;15.27;10.32;;;;;;;;;;5092600;28;20067;-55
2022/10/11 16:01:06;;;;;;;10.20;8.93;;;;;;;;;;5092108;28;20107;-58
2022/10/11 16:03:57;;;;;;;11.23;9.98;;;;;;;;;;5136311;27;20534;-58
2022/10/11 16:15:22;;;;;;;14.13;10.43;;;;;;;;;;5135108;27;20033;-55
2022/10/11 16:17:51;;;;;;;11.57;10.40;;;;;;;;;;5135164;27;20484;-58
2022/10/11 16:26:50;;;;;;;13.00;9.35;;;;;;;;;;5010186;28;20104;-58
2022/10/11 16:35:28;;;;;;;;;;;;;;;;;;;;;
2022/10/11 16:44:25;;;;;;;15.13;11.00;;;;;;;;;;5031279;28;20029;-56
2022/10/11 16:47:19;;;;;;;11.10;9.82;;;;;;;;;;5118349;28;20112;-56
2022/10/11 16:50:07;;;;;;;13.32;10.32;;;;;;;;;;5098659;28;20372;-56
2022/10/11 16:53:03;;;;;;;;;;;;;;;;;;;;;
2022/10/11 16:56:08;;;;;;;13.30;10.00;;;;;;;;;;5134834;28;20108;-55
2022/10/11 16:58:53;;;;;;;15.90;10.48;;;;;;;;;;5115843;28;20476;-57
2022/10/11 17:07:46;;;;;;;;;;;;;;;;;;5092815;28;20070;-57
2022/10/11 17:10:19;;;;;;;;;;;;;;;;;;;;;
2022/10/11 17:13:03;;;;;;;14.35;9.98;;;;;;;;;;5111059;28;20054;-57
2022/10/11 17:16:10;;;;;;;11.93;9.35;;;;;;;;;;5115756;28;20444;-57
2022/10/11 17:19:30;;;;;;;14.38;10.88;;;;;;;;;;5134820;28;20015;-58
2022/10/11 17:22:21;;;;;;;14.75;10.02;;;;;;;;;;5014856;28;20037;-57
2022/10/11 17:25:08;;;;;;;13.18;9.68;;;;;;;;;;5034807;28;20523;-56
2022/10/11 17:28:12;;;;;;;11.48;10.25;;;;;;;;;;5055035;28;20056;-57
2022/10/11 17:30:42;;;;;;;12.57;9.05;;;;;;;;;;5055084;28;20492;-56
2022/10/11 17:33:25;;;;;;;13.50;10.73;;;;;;;;;;5098534;27;20106;-57
2022/10/11 17:36:22;;;;;;;;;;;;;;;;;;;;;
2022/10/11 17:42:17;;;;;;;12.52;9.68;;;;;;;;;;5092500;27;20027;-57
2022/10/11 17:48:33;;;;;;;14.32;10.55;;;;;;;;;;5127290;27;20056;-58
2022/10/11 17:51:14;;;;;;;13.35;9.52;;;;;;;;;;5133844;27;20087;-57
2022/10/11 17:53:41;;;;;;;13.32;10.05;;;;;;;;;;5120460;27;20469;-57
2022/10/11 17:56:29;;;;;;;13.07;11.68;;;;;;;;;;5138332;27;20072;-57
2022/10/11 17:59:14;;;;;;;12.52;9.25;;;;;;;;;;5122769;27;20605;-55
2022/10/11 18:01:56;;;;;;;13.18;8.70;;;;;;;;;;5133354;27;20544;-57
2022/10/11 18:08:13;;;;;;;9.98;8.82;;;;;;;;;;5135817;27;20110;-57
2022/10/11 18:16:19;;;;;;;14.10;10.43;;;;;;;;;;5040825;27;20083;-57
2022/10/11 18:31:23;;;;;;;11.55;10.35;;;;;;;;;;4948138;28;20030;-56
2022/10/11 18:34:40;;;;;;;15.05;11.07;;;;;;;;;;5074298;28;20397;-57
2022/10/11 18:37:33;;;;;;;14.52;11.63;;;;;;;;;;5013620;28;20443;-58
2022/10/11 18:40:15;;;;;;;16.27;10.88;;;;;;;;;;5023267;28;20063;-58
2022/10/11 18:42:53;;;;;;;20.85;11.80;;;;;;;;;;5049065;28;20037;-58
2022/10/11 18:45:39;;;;;;;18.88;12.15;;;;;;;;;;5035641;28;20498;-58
2022/10/11 18:48:19;;;;;;;12.70;11.40;;;;;;;;;;5136874;27;20027;-57
2022/10/11 18:50:48;;;;;;;19.33;11.15;;;;;;;;;;5118425;27;20031;-57
2022/10/11 18:56:53;;;;;;;17.80;10.40;;;;;;;;;;5086154;27;20055;-57
2022/10/11 19:03:15;;;;;;;;;;;;;;;;;;;;;
2022/10/11 19:05:55;;;;;;;;;;;;;;;;;;5034315;28;20112;-57
2022/10/11 19:14:44;;;;;;;16.67;11.32;;;;;;;;;;5135911;27;20532;-58
2022/10/11 19:17:42;;;;;;;14.77;10.73;;;;;;;;;;5136788;27;20031;-58
2022/10/11 19:20:27;;;;;;;18.67;12.65;;;;;;;;;;5116889;27;20035;-58
2022/10/11 19:23:04;;;;;;;17.88;12.75;;;;;;;;;;5100037;27;20383;-58
2022/10/11 19:25:42;;;;;;;14.65;11.50;;;;;;;;;;5117752;27;20487;-58
2022/10/11 19:28:29;;;;;;;21.92;12.90;;;;;;;;;;5137169;27;20023;-58
2022/10/11 19:31:33;;;;;;;15.55;12.07;;;;;;;;;;5136174;27;20426;-58
2022/10/11 19:37:53;;;;;;;16.27;12.32;;;;;;;;;;5013791;28;20033;-59
2022/10/11 19:40:55;;;;;;;15.27;12.75;;;;;;;;;;5056459;27;20031;-57
2022/10/11 19:47:03;;;;;;;;;;;;;;;;;;;;;
2022/10/11 19:56:15;;;;;;;14.70;12.88;;;;;;;;;;5131766;27;20042;-57
2022/10/11 19:59:12;;;;;;;17.23;11.90;;;;;;;;;;5136329;27;20023;-57
2022/10/11 20:02:01;;;;;;;18.15;12.90;;;;;;;;;;5136140;27;20019;-58
2022/10/11 20:04:51;;;;;;;16.52;13.73;;;;;;;;;;5135799;27;20083;-57
2022/10/11 20:07:52;;;;;;;17.67;13.00;;;;;;;;;;5115385;27;20035;-58
2022/10/11 20:10:40;;;;;;;15.40;12.82;;;;;;;;;;5118261;27;20034;-58
2022/10/11 20:16:23;;;;;;;15.00;12.35;;;;;;;;;;5136107;27;20052;-58
2022/10/11 20:19:00;;;;;;;15.15;13.55;;;;;;;;;;5116588;27;20418;-58
2022/10/11 20:21:40;;;;;;;;;;;;;;;;;;;;;
2022/10/11 20:24:21;;;;;;;16.40;14.07;;;;;;;;;;5119659;28;20114;-58
2022/10/11 20:27:08;;;;;;;19.92;13.98;;;;;;;;;;5141163;27;20585;-57
2022/10/11 20:33:01;;;;;;;17.30;13.38;;;;;;;;;;5078822;28;20058;-58
2022/10/11 20:35:43;;;;;;;;;;;;;;;;;;;;;
2022/10/11 20:38:19;;;;;;;18.02;12.95;;;;;;;;;;5111639;28;20038;-58
2022/10/11 20:41:00;;;;;;;19.30;13.88;;;;;;;;;;5114263;28;20038;-58
2022/10/11 20:46:30;;;;;;;18.80;13.32;;;;;;;;;;5084030;28;20043;-57
2022/10/11 20:55:16;;;;;;;15.90;13.32;;;;;;;;;;5050788;28;20076;-57
2022/10/11 21:01:36;;;;;;;15.57;13.23;;;;;;;;;;5079586;28;20046;-58
2022/10/11 21:10:21;;;;;;;15.82;12.77;;;;;;;;;;5046815;28;20037;-58
2022/10/11 21:12:59;;;;;;;19.73;13.90;;;;;;;;;;5046971;28;20037;-58
2022/10/11 21:15:39;;;;;;;15.40;13.77;;;;;;;;;;5046686;28;20056;-59
2022/10/11 21:21:10;;;;;;;14.18;12.68;;;;;;;;;;5126655;28;20034;-58
2022/10/11 21:26:34;;;;;;;19.75;15.20;;;;;;;;;;5129635;28;20253;-58
2022/10/11 21:29:03;;;;;;;19.42;13.70;;;;;;;;;;5110589;28;20032;-58
2022/10/11 21:32:02;;;;;;;;;;;;;;;;;;;;;
2022/10/11 21:37:30;;;;;;;23.95;14.02;;;;;;;;;;5086938;28;20091;-56
2022/10/11 21:40:15;;;;;;;;;;;;;;;;;;;;;
2022/10/11 21:42:51;;;;;;;18.38;14.10;;;;;;;;;;5046644;28;20112;-58
2022/10/11 21:48:38;;;;;;;;;;;;;;;;;;;;;
2022/10/11 21:51:31;;;;;;;18.65;13.82;;;;;;;;;;5019292;28;20125;-58
2022/10/11 21:54:19;;;;;;;16.58;11.95;;;;;;;;;;5015274;28;20037;-58
2022/10/11 21:56:53;;;;;;;20.88;15.68;;;;;;;;;;5046157;28;20037;-58
2022/10/11 22:08:30;;;;;;;16.88;13.95;;;;;;;;;;5029011;28;20419;-57
2022/10/11 22:11:41;;;;;;;19.00;14.25;;;;;;;;;;5106785;28;20051;-58
2022/10/11 22:14:10;;;;;;;16.48;12.93;;;;;;;;;;5119477;28;20043;-58
2022/10/11 22:17:11;;;;;;;17.02;13.07;;;;;;;;;;5110544;28;20042;-58
2022/10/11 22:20:07;;;;;;;21.23;13.80;;;;;;;;;;5128604;28;20031;-58
2022/10/11 22:26:10;;;;;;;18.38;13.85;;;;;;;;;;5065501;28;20029;-58
2022/10/11 22:28:38;;;;;;;;;;;;;;;;;;5066318;28;20032;-58
2022/10/11 22:31:38;;;;;;;23.35;12.23;;;;;;;;;;5106136;28;19918;-58
2022/10/11 22:34:05;;;;;;;14.35;12.63;;;;;;;;;;5148300;27;20038;-58
2022/10/11 22:46:06;;;;;;;;;;;;;;;;;;;;;
2022/10/11 22:49:04;;;;;;;15.27;13.32;;;;;;;;;;5148731;27;20061;-58
2022/10/11 22:51:58;;;;;;;18.33;13.48;;;;;;;;;;5138741;27;20101;-58
2022/10/11 22:54:30;;;;;;;19.23;12.65;;;;;;;;;;5147964;27;20027;-58
2022/10/11 23:00:06;;;;;;;17.10;12.20;;;;;;;;;;5137744;27;20054;-58
2022/10/11 23:15:07;;;;;;;14.82;13.30;;;;;;;;;;5149112;27;20052;-58
2022/10/11 23:18:17;;;;;;;18.77;14.00;;;;;;;;;;5149234;27;20098;-58
2022/10/11 23:21:16;;;;;;;19.95;13.32;;;;;;;;;;5149166;27;20015;-58
2022/10/11 23:23:48;;;;;;;16.88;12.68;;;;;;;;;;5044649;28;20036;-57
2022/10/11 23:26:42;;;;;;;19.45;13.68;;;;;;;;;;5045122;28;20064;-58
2022/10/11 23:29:17;;;;;;;15.70;12.80;;;;;;;;;;5045202;28;20026;-57
2022/10/11 23:31:55;;;;;;;16.10;13.00;;;;;;;;;;5028476;28;20068;-58
2022/10/11 23:38:15;;;;;;;19.92;14.70;;;;;;;;;;5088819;28;20189;-58
2022/10/11 23:40:51;;;;;;;17.90;13.90;;;;;;;;;;5109763;28;20091;-58
2022/10/11 23:43:44;;;;;;;;;;;;;;;;;;;;;
2022/10/11 23:46:23;;;;;;;17.20;13.13;;;;;;;;;;5120028;28;20098;-58
2022/10/11 23:49:29;;;;;;;14.60;12.70;;;;;;;;;;5127280;28;20081;-58
2022/10/11 23:52:45;;;;;;;;;;;;;;;;;;;;;
